Ocean King — CZ2591 — position and weather

sailwx.info

Track history (hours):
 
Tides and Currents Weather Stations Pressure Air Temp Water Temp Dewpoint Dewpoint Depression Visibility Wind Speed Wind Dir Waves Ship Positions

Ocean King

Last reported at 2018-Apr-23 05:31 UTC. Time now 2018-Apr-23 05:44 UTC.
Position N 48°56' W 125°32'.

Length 29 m; draft 4 m.

Type: Fishing. MMSI: 316003514.

Date/timePositionNaut miles runAvg speedWind from/ knotsBaromVisibWave heightAir tempDewpointWater temp
2018-Apr-23 05:31N 48°56' W 125°32'0 0.0
2018-Apr-23 05:00N 48°56' W 125°32'0 0.0
2018-Apr-23 04:30N 48°56' W 125°32'0 0.0
2018-Apr-23 04:00N 48°56' W 125°32'0 0.0
2018-Apr-23 03:31N 48°56' W 125°32'0 0.0
2018-Apr-23 03:00N 48°56' W 125°32'0 0.0
2018-Apr-23 02:30N 48°56' W 125°32'0 0.0
2018-Apr-23 02:00N 48°56' W 125°32'0 0.0
2018-Apr-23 01:30N 48°56' W 125°32'3 5.2
2018-Apr-23 01:00N 48°55' W 125°29'4 8.9
2018-Apr-23 00:30N 48°56' W 125°23'5 9.2
2018-Apr-23 00:00N 48°57' W 125°16'5 8.9
2018-Apr-22 23:28N 48°56' W 125°09'14 5.1
2018-Apr-22 20:49N 49°04' W 124°51'3 9.3
2018-Apr-22 20:26N 49°07' W 124°49'4 9.4
2018-Apr-22 20:00N 49°11' W 124°49'3 6.9
2018-Apr-22 19:30N 49°14' W 124°49'0 0.0
2018-Apr-22 19:00N 49°14' W 124°49'0 0.0
2018-Apr-22 18:30N 49°14' W 124°49'0 0.4
2018-Apr-22 18:00N 49°14' W 124°49'0 0.0
2018-Apr-22 17:28N 49°14' W 124°49'0 0.0
2018-Apr-22 17:00N 49°14' W 124°49'0 0.0
2018-Apr-22 16:31N 49°14' W 124°49'0 0.0
2018-Apr-22 16:00N 49°14' W 124°49'0 0.0
2018-Apr-22 15:30N 49°14' W 124°49'0 0.0
2018-Apr-22 15:00N 49°14' W 124°49'0 0.0
2018-Apr-22 14:30N 49°14' W 124°49'0 0.0
2018-Apr-22 14:01N 49°14' W 124°49'0 0.0
2018-Apr-22 13:30N 49°14' W 124°49'0 0.0
2018-Apr-22 13:00N 49°14' W 124°49'0 0.0
2018-Apr-22 12:30N 49°14' W 124°49'0 0.0
2018-Apr-22 12:00N 49°14' W 124°49'0 0.0
2018-Apr-22 11:30N 49°14' W 124°49'0 0.0
2018-Apr-22 11:00N 49°14' W 124°49'0 0.0
2018-Apr-22 10:30N 49°14' W 124°49'0 0.0
2018-Apr-22 10:00N 49°14' W 124°49'0 0.0
2018-Apr-22 09:29N 49°14' W 124°49'0 0.0
2018-Apr-22 09:00N 49°14' W 124°49'0 0.0
2018-Apr-22 08:30N 49°14' W 124°49'0 0.0
2018-Apr-22 08:00N 49°14' W 124°49'0 0.0
2018-Apr-22 07:30N 49°14' W 124°49'0 0.0
2018-Apr-22 07:01N 49°14' W 124°49'0 0.0
2018-Apr-22 06:29N 49°14' W 124°49'0 0.0
2018-Apr-22 06:00N 49°14' W 124°49'0 0.0
2018-Apr-22 05:30N 49°14' W 124°49'0 0.0
2018-Apr-22 05:00N 49°14' W 124°49'0 0.0
2018-Apr-22 04:30N 49°14' W 124°49'0 0.0
2018-Apr-22 04:00N 49°14' W 124°49'0 0.0
2018-Apr-22 03:30N 49°14' W 124°49'0 0.0
2018-Apr-22 03:00N 49°14' W 124°49'0 0.0
2018-Apr-22 02:26N 49°14' W 124°49'0 0.0
2018-Apr-22 01:55N 49°14' W 124°49'0 0.0
2018-Apr-22 01:28N 49°14' W 124°49'0 0.0
2018-Apr-22 00:54N 49°14' W 124°49'0 0.0
2018-Apr-22 00:31N 49°14' W 124°49'0 0.0
2018-Apr-21 23:59N 49°14' W 124°49'0 0.0
2018-Apr-21 23:30N 49°14' W 124°49'0 0.0
2018-Apr-21 23:01N 49°14' W 124°49'0 0.0
2018-Apr-21 22:30N 49°14' W 124°49'0 0.0
2018-Apr-21 22:01N 49°14' W 124°49'0 0.0
2018-Apr-21 21:30N 49°14' W 124°49'0 0.0
2018-Apr-21 20:59N 49°14' W 124°49'0 0.0
2018-Apr-21 20:28N 49°14' W 124°49'0 0.0
2018-Apr-21 20:00N 49°14' W 124°49'0 0.0
2018-Apr-21 19:30N 49°14' W 124°49'0 0.0
2018-Apr-21 19:00N 49°14' W 124°49'0 0.0
2018-Apr-21 18:30N 49°14' W 124°49'0 0.0
2018-Apr-21 18:00N 49°14' W 124°49'0 0.0
2018-Apr-21 17:30N 49°14' W 124°49'0 0.0
2018-Apr-21 17:00N 49°14' W 124°49'0 0.0
2018-Apr-21 16:30N 49°14' W 124°49'0 0.0
2018-Apr-21 16:00N 49°14' W 124°49'0 0.0
2018-Apr-21 15:28N 49°14' W 124°49'0 0.0
2018-Apr-21 15:00N 49°14' W 124°49'0 0.0
2018-Apr-21 14:30N 49°14' W 124°49'0 0.0
2018-Apr-21 14:00N 49°14' W 124°49'0 0.0
2018-Apr-21 13:30N 49°14' W 124°49'0 0.0
2018-Apr-21 13:00N 49°14' W 124°49'0 0.0
2018-Apr-21 12:30N 49°14' W 124°49'0 0.0
2018-Apr-21 12:00N 49°14' W 124°49'0 0.0
2018-Apr-21 11:30N 49°14' W 124°49'0 0.0
2018-Apr-21 11:01N 49°14' W 124°49'0 0.0
2018-Apr-21 10:30N 49°14' W 124°49'0 0.0
2018-Apr-21 09:57N 49°14' W 124°49'0 0.0
2018-Apr-21 09:30N 49°14' W 124°49'0 0.0
2018-Apr-21 09:00N 49°14' W 124°49'0 0.0
2018-Apr-21 08:30N 49°14' W 124°49'0 0.0
2018-Apr-21 08:00N 49°14' W 124°49'0 0.0
2018-Apr-21 07:30N 49°14' W 124°49'0 0.0
2018-Apr-21 07:00N 49°14' W 124°49'0 0.0
2018-Apr-21 06:30N 49°14' W 124°49'0 0.0
2018-Apr-21 05:57N 49°14' W 124°49'0 0.0
2018-Apr-21 05:30N 49°14' W 124°49'0 0.0
2018-Apr-21 05:00N 49°14' W 124°49'0 0.0
2018-Apr-21 04:31N 49°14' W 124°49'0 0.0
2018-Apr-21 04:00N 49°14' W 124°49'0 0.0
2018-Apr-21 03:30N 49°14' W 124°49'0 0.0
2018-Apr-21 03:01N 49°14' W 124°49'0 0.0
2018-Apr-21 02:30N 49°14' W 124°49'0 0.0
2018-Apr-21 02:00N 49°14' W 124°49'0 0.0
2018-Apr-21 01:31N 49°14' W 124°49'0 0.0
2018-Apr-21 00:48N 49°14' W 124°49'0 0.0
2018-Apr-21 00:26N 49°14' W 124°49'0 0.0
2018-Apr-21 00:00N 49°14' W 124°49'0 0.0
2018-Apr-20 23:30N 49°14' W 124°49'0 0.0
2018-Apr-20 23:00N 49°14' W 124°49'0 0.0
2018-Apr-20 22:30N 49°14' W 124°49'0 0.0
2018-Apr-20 22:00N 49°14' W 124°49'0 0.0
2018-Apr-20 21:30N 49°14' W 124°49'0 0.0
2018-Apr-20 21:00N 49°14' W 124°49'0 0.0
2018-Apr-20 19:57N 49°14' W 124°49'0 0.0
2018-Apr-20 19:28N 49°14' W 124°49'0 0.0
2018-Apr-20 19:00N 49°14' W 124°49'0 0.0
2018-Apr-20 18:30N 49°14' W 124°49'0 0.0
2018-Apr-20 18:00N 49°14' W 124°49'0 0.0
2018-Apr-20 17:29N 49°14' W 124°49'0 0.0
2018-Apr-20 17:00N 49°14' W 124°49'0 0.0
2018-Apr-20 16:30N 49°14' W 124°49'0 0.0
2018-Apr-20 16:00N 49°14' W 124°49'0 0.0
2018-Apr-20 15:30N 49°14' W 124°49'0 0.0
2018-Apr-20 15:00N 49°14' W 124°49'0 0.0
2018-Apr-20 14:30N 49°14' W 124°49'0 0.0
2018-Apr-20 13:59N 49°14' W 124°49'0 0.0
2018-Apr-20 13:30N 49°14' W 124°49'0 0.0
2018-Apr-20 13:00N 49°14' W 124°49'0 0.0
2018-Apr-20 12:30N 49°14' W 124°49'0 0.0
2018-Apr-20 11:57N 49°14' W 124°49'0 0.0
2018-Apr-20 11:25N 49°14' W 124°49'0 0.0
2018-Apr-20 11:00N 49°14' W 124°49'0 0.0
2018-Apr-20 10:31N 49°14' W 124°49'0 0.0
2018-Apr-20 10:00N 49°14' W 124°49'0 0.0
2018-Apr-20 09:30N 49°14' W 124°49'0 0.0
2018-Apr-20 09:00N 49°14' W 124°49'0 0.0
2018-Apr-20 08:31N 49°14' W 124°49'0 0.0
2018-Apr-20 08:00N 49°14' W 124°49'0 0.0
2018-Apr-20 07:30N 49°14' W 124°49'0 0.0
2018-Apr-20 06:57N 49°14' W 124°49'0 0.0
2018-Apr-20 06:30N 49°14' W 124°49'0 0.0
2018-Apr-20 06:00N 49°14' W 124°49'0 0.0
2018-Apr-20 05:31N 49°14' W 124°49'0 0.0
2018-Apr-20 04:58N 49°14' W 124°49'0 0.0
2018-Apr-20 04:30N 49°14' W 124°49'0 0.0
2018-Apr-20 04:00N 49°14' W 124°49'0 0.0
2018-Apr-20 03:27N 49°14' W 124°49'0 0.0
2018-Apr-20 03:00N 49°14' W 124°49'0 0.0
2018-Apr-20 02:31N 49°14' W 124°49'0 0.0
2018-Apr-20 02:01N 49°14' W 124°49'0 0.0
2018-Apr-20 01:25N 49°14' W 124°49'0 0.0
2018-Apr-20 01:00N 49°14' W 124°49'0 0.0
2018-Apr-20 00:23N 49°14' W 124°49'0 0.0
2018-Apr-20 00:00N 49°14' W 124°49'0 0.0
2018-Apr-19 23:30N 49°14' W 124°49'0 0.0
2018-Apr-19 23:00N 49°14' W 124°49'0 0.0
2018-Apr-19 22:30N 49°14' W 124°49'0 0.0
2018-Apr-19 22:00N 49°14' W 124°49'0 0.0
2018-Apr-19 21:27N 49°14' W 124°49'0 0.0
2018-Apr-19 21:00N 49°14' W 124°49'0 0.0
2018-Apr-19 20:30N 49°14' W 124°49'0 0.0
2018-Apr-19 19:56N 49°14' W 124°49'0 0.0
2018-Apr-19 19:30N 49°14' W 124°49'0 0.0
2018-Apr-19 19:01N 49°14' W 124°49'0 0.0
2018-Apr-19 18:29N 49°14' W 124°49'0 0.0
2018-Apr-19 18:00N 49°14' W 124°49'0 0.0
2018-Apr-19 17:30N 49°14' W 124°49'0 0.0
2018-Apr-19 17:00N 49°14' W 124°49'0 0.0
2018-Apr-19 16:28N 49°14' W 124°49'0 0.0
2018-Apr-19 16:01N 49°14' W 124°49'0 0.0
2018-Apr-19 15:30N 49°14' W 124°49'0 0.0
2018-Apr-19 15:01N 49°14' W 124°49'0 0.0
2018-Apr-19 14:30N 49°14' W 124°49'0 0.0
2018-Apr-19 14:00N 49°14' W 124°49'0 0.0
2018-Apr-19 13:28N 49°14' W 124°49'0 0.0
2018-Apr-19 13:00N 49°14' W 124°49'0 0.0
2018-Apr-19 12:26N 49°14' W 124°49'0 0.0
2018-Apr-19 11:59N 49°14' W 124°49'0 0.0
2018-Apr-19 11:30N 49°14' W 124°49'0 0.0
2018-Apr-19 10:58N 49°14' W 124°49'0 0.0
2018-Apr-19 10:27N 49°14' W 124°49'0 0.0
2018-Apr-19 10:00N 49°14' W 124°49'0 0.0
2018-Apr-19 09:30N 49°14' W 124°49'0 0.0
2018-Apr-19 09:00N 49°14' W 124°49'0 0.0
2018-Apr-19 08:30N 49°14' W 124°49'0 0.0
2018-Apr-19 08:00N 49°14' W 124°49'0 0.0
2018-Apr-19 07:30N 49°14' W 124°49'0 0.0
2018-Apr-19 07:00N 49°14' W 124°49'0 0.0
2018-Apr-19 06:30N 49°14' W 124°49'0 0.0
2018-Apr-19 06:00N 49°14' W 124°49'0 0.0
2018-Apr-19 05:30N 49°14' W 124°49'0 0.0
2018-Apr-19 05:00N 49°14' W 124°49'0 0.0
2018-Apr-19 04:30N 49°14' W 124°49'0 0.0
2018-Apr-19 04:01N 49°14' W 124°49'0 0.0
2018-Apr-19 03:29N 49°14' W 124°49'0 0.0
2018-Apr-19 03:00N 49°14' W 124°49'0 0.0
2018-Apr-19 02:30N 49°14' W 124°49'0 0.0
2018-Apr-19 01:59N 49°14' W 124°49'0 0.0
2018-Apr-19 01:30N 49°14' W 124°49'0 0.0
2018-Apr-19 00:59N 49°14' W 124°49'0 0.0
2018-Apr-19 00:30N 49°14' W 124°49'0 0.0
2018-Apr-18 23:58N 49°14' W 124°49'0 0.0
2018-Apr-18 23:30N 49°14' W 124°49'0 0.0
2018-Apr-18 23:00N 49°14' W 124°49'0 0.0
2018-Apr-18 22:26N 49°14' W 124°49'0 0.0
2018-Apr-18 22:00N 49°14' W 124°49'0 0.0
2018-Apr-18 21:31N 49°14' W 124°49'0 0.0
2018-Apr-18 21:00N 49°14' W 124°49'0 0.0
2018-Apr-18 20:30N 49°14' W 124°49'1 1.3
2018-Apr-18 20:00N 49°14' W 124°49'0 0.2
2018-Apr-18 19:28N 49°13' W 124°49'0 0.0
2018-Apr-18 19:00N 49°13' W 124°49'0 0.0
2018-Apr-18 18:30N 49°13' W 124°49'0 0.0
2018-Apr-18 17:56N 49°13' W 124°49'0 0.0
2018-Apr-18 17:28N 49°13' W 124°49'0 0.0
2018-Apr-18 17:00N 49°13' W 124°49'0 0.0
2018-Apr-18 16:30N 49°13' W 124°49'1 1.4
2018-Apr-18 16:00N 49°14' W 124°49'0 0.0
2018-Apr-18 15:30N 49°14' W 124°49'0 0.0
2018-Apr-18 15:00N 49°14' W 124°49'0 0.0
2018-Apr-18 14:30N 49°14' W 124°49'0 0.0
2018-Apr-18 14:00N 49°14' W 124°49'0 0.0
2018-Apr-18 13:28N 49°14' W 124°49'0 0.0
2018-Apr-18 13:01N 49°14' W 124°49'0 0.0
2018-Apr-18 12:30N 49°14' W 124°49'0 0.0
2018-Apr-18 12:00N 49°14' W 124°49'0 0.0
2018-Apr-18 11:30N 49°14' W 124°49'0 0.0
2018-Apr-18 11:01N 49°14' W 124°49'0 0.0
2018-Apr-18 10:28N 49°14' W 124°49'0 0.0
2018-Apr-18 09:59N 49°14' W 124°49'0 0.0
2018-Apr-18 09:30N 49°14' W 124°49'0 0.0
2018-Apr-18 09:00N 49°14' W 124°49'0 0.0
2018-Apr-18 08:28N 49°14' W 124°49'0 0.0
2018-Apr-18 08:00N 49°14' W 124°49'0 0.0
2018-Apr-18 07:30N 49°14' W 124°49'0 0.0
2018-Apr-18 07:00N 49°14' W 124°49'0 0.0
2018-Apr-18 06:30N 49°14' W 124°49'0 0.0
2018-Apr-18 06:00N 49°14' W 124°49'0 0.0
2018-Apr-18 05:31N 49°14' W 124°49'0 0.0
2018-Apr-18 05:00N 49°14' W 124°49'0 0.0
2018-Apr-18 04:30N 49°14' W 124°49'0 0.0
2018-Apr-18 04:00N 49°14' W 124°49'0 0.0
2018-Apr-18 03:30N 49°14' W 124°49'0 0.0
2018-Apr-18 03:00N 49°14' W 124°49'0 0.0
2018-Apr-18 02:30N 49°14' W 124°49'0 0.0
2018-Apr-18 02:00N 49°14' W 124°49'0 0.0
2018-Apr-18 01:30N 49°14' W 124°49'0 0.0
2018-Apr-18 01:01N 49°14' W 124°49'0 0.0
2018-Apr-18 00:30N 49°14' W 124°49'0 0.0
2018-Apr-18 00:00N 49°14' W 124°49'0 0.0
2018-Apr-17 23:30N 49°14' W 124°49'1 1.3
2018-Apr-17 23:00N 49°14' W 124°49'0 0.0
2018-Apr-17 22:30N 49°14' W 124°49'0 0.0
2018-Apr-17 22:00N 49°14' W 124°49'0 0.0
2018-Apr-17 21:30N 49°14' W 124°49'0 0.0
2018-Apr-17 21:00N 49°14' W 124°49'0 0.0
2018-Apr-17 20:30N 49°14' W 124°49'0 0.0
2018-Apr-17 20:00N 49°14' W 124°49'0 0.0
2018-Apr-17 19:30N 49°14' W 124°49'0 0.0
2018-Apr-17 19:00N 49°14' W 124°49'0 0.0
2018-Apr-17 18:30N 49°14' W 124°49'0 0.0
2018-Apr-17 18:00N 49°14' W 124°49'0 0.0
2018-Apr-17 17:30N 49°14' W 124°49'0 0.0
2018-Apr-17 17:00N 49°14' W 124°49'0 0.0
2018-Apr-17 16:30N 49°14' W 124°49'0 0.0
2018-Apr-17 16:00N 49°14' W 124°49'0 0.2
2018-Apr-17 15:30N 49°14' W 124°49'1 1.1
2018-Apr-17 15:00N 49°14' W 124°49'0 0.0
2018-Apr-17 14:30N 49°14' W 124°49'0 0.0
2018-Apr-17 14:00N 49°14' W 124°49'0 0.0
2018-Apr-17 13:30N 49°14' W 124°49'0 0.0
2018-Apr-17 13:00N 49°14' W 124°49'0 0.0
2018-Apr-17 12:30N 49°14' W 124°49'0 0.0
2018-Apr-17 12:00N 49°14' W 124°49'0 0.0
2018-Apr-17 11:30N 49°14' W 124°49'0 0.0
2018-Apr-17 11:00N 49°14' W 124°49'0 0.0
2018-Apr-17 10:30N 49°14' W 124°49'0 0.0
2018-Apr-17 10:00N 49°14' W 124°49'0 0.0
2018-Apr-17 09:30N 49°14' W 124°49'0 0.0
2018-Apr-17 09:00N 49°14' W 124°49'0 0.0
2018-Apr-17 08:30N 49°14' W 124°49'0 0.0
2018-Apr-17 08:00N 49°14' W 124°49'0 0.0
2018-Apr-17 07:30N 49°14' W 124°49'0 0.0
2018-Apr-17 07:00N 49°14' W 124°49'0 0.0
2018-Apr-17 06:30N 49°14' W 124°49'0 0.0
2018-Apr-17 06:00N 49°14' W 124°49'0 0.0
2018-Apr-17 05:30N 49°14' W 124°49'0 0.0
2018-Apr-17 05:00N 49°14' W 124°49'0 0.0
2018-Apr-17 04:30N 49°14' W 124°49'0 0.0
2018-Apr-17 04:00N 49°14' W 124°49'0 0.0
2018-Apr-17 03:30N 49°14' W 124°49'0 0.0
2018-Apr-17 03:00N 49°14' W 124°49'0 0.0
2018-Apr-17 02:30N 49°14' W 124°49'0 0.0
2018-Apr-17 01:57N 49°14' W 124°49'0 0.0
2018-Apr-17 01:30N 49°14' W 124°49'0 0.0
2018-Apr-17 01:00N 49°14' W 124°49'0 0.0
2018-Apr-17 00:30N 49°14' W 124°49'0 0.0
2018-Apr-17 00:00N 49°14' W 124°49'0 0.0
2018-Apr-16 23:30N 49°14' W 124°49'0 0.0
2018-Apr-16 23:00N 49°14' W 124°49'0 0.0
2018-Apr-16 22:30N 49°14' W 124°49'0 0.0
2018-Apr-16 22:00N 49°14' W 124°49'0 0.0
2018-Apr-16 21:30N 49°14' W 124°49'0 0.0
2018-Apr-16 21:00N 49°14' W 124°49'0 0.0
2018-Apr-16 20:30N 49°14' W 124°49'0 0.0
2018-Apr-16 20:00N 49°14' W 124°49'0 0.0
2018-Apr-16 19:30N 49°14' W 124°49'0 0.0
2018-Apr-16 19:00N 49°14' W 124°49'0 0.0
2018-Apr-16 18:30N 49°14' W 124°49'0 0.0
2018-Apr-16 18:00N 49°14' W 124°49'0 0.0
2018-Apr-16 17:30N 49°14' W 124°49'0 0.0
2018-Apr-16 17:00N 49°14' W 124°49'0 0.0
2018-Apr-16 16:30N 49°14' W 124°49'0 0.0
2018-Apr-16 16:00N 49°14' W 124°49'0 0.0
2018-Apr-16 15:30N 49°14' W 124°49'0 0.0
2018-Apr-16 15:00N 49°14' W 124°49'0 0.0
2018-Apr-16 14:30N 49°14' W 124°49'0 0.0
2018-Apr-16 14:00N 49°14' W 124°49'0 0.0
2018-Apr-16 13:30N 49°14' W 124°49'0 0.0
2018-Apr-16 13:00N 49°14' W 124°49'0 0.0
2018-Apr-16 12:30N 49°14' W 124°49'0 0.0
2018-Apr-16 12:00N 49°14' W 124°49'0 0.0
2018-Apr-16 11:30N 49°14' W 124°49'0 0.0
2018-Apr-16 11:00N 49°14' W 124°49'0 0.0
2018-Apr-16 10:30N 49°14' W 124°49'0 0.0
2018-Apr-16 10:00N 49°14' W 124°49'0 0.0
2018-Apr-16 09:29N 49°14' W 124°49'0 0.0
2018-Apr-16 08:59N 49°14' W 124°49'0 0.0
2018-Apr-16 08:30N 49°14' W 124°49'0 0.0
2018-Apr-16 08:00N 49°14' W 124°49'0 0.0
2018-Apr-16 07:29N 49°14' W 124°49'0 0.0
2018-Apr-16 07:00N 49°14' W 124°49'0 0.0
2018-Apr-16 06:30N 49°14' W 124°49'0 0.0
2018-Apr-16 06:00N 49°14' W 124°49'0 0.0
2018-Apr-16 05:28N 49°14' W 124°49'0 0.0
2018-Apr-16 05:00N 49°14' W 124°49'0 0.0
2018-Apr-16 04:30N 49°14' W 124°49'0 0.0
2018-Apr-16 04:00N 49°14' W 124°49'0 0.0
2018-Apr-16 03:30N 49°14' W 124°49'0 0.0
2018-Apr-16 03:00N 49°14' W 124°49'0 0.0
2018-Apr-16 02:30N 49°14' W 124°49'0 0.0
2018-Apr-16 02:00N 49°14' W 124°49'0 0.0
2018-Apr-16 01:30N 49°14' W 124°49'0 0.0
2018-Apr-16 01:00N 49°14' W 124°49'0 0.0
2018-Apr-16 00:29N 49°14' W 124°49'0 0.0
2018-Apr-16 00:00N 49°14' W 124°49'0 0.0
2018-Apr-15 23:30N 49°14' W 124°49'0 0.0
2018-Apr-15 23:00N 49°14' W 124°49'0 0.0
2018-Apr-15 22:30N 49°14' W 124°49'0 0.0
2018-Apr-15 22:00N 49°14' W 124°49'0 0.0
2018-Apr-15 21:30N 49°14' W 124°49'0 0.0
2018-Apr-15 21:00N 49°14' W 124°49'0 0.0
2018-Apr-15 20:30N 49°14' W 124°49'0 0.0
2018-Apr-15 20:00N 49°14' W 124°49'0 0.0
2018-Apr-15 19:30N 49°14' W 124°49'0 0.0
2018-Apr-15 19:00N 49°14' W 124°49'0 0.0
2018-Apr-15 18:30N 49°14' W 124°49'0 0.0
2018-Apr-15 18:00N 49°14' W 124°49'0 0.0
2018-Apr-15 17:30N 49°14' W 124°49'0 0.0
2018-Apr-15 17:00N 49°14' W 124°49'0 0.0
2018-Apr-15 16:30N 49°14' W 124°49'0 0.0
2018-Apr-15 16:00N 49°14' W 124°49'0 0.0
2018-Apr-15 15:30N 49°14' W 124°49'0 0.0
2018-Apr-15 15:00N 49°14' W 124°49'0 0.0
2018-Apr-15 14:31N 49°14' W 124°49'0 0.0
2018-Apr-15 14:00N 49°14' W 124°49'0 0.0
2018-Apr-15 13:30N 49°14' W 124°49'0 0.0
2018-Apr-15 13:00N 49°14' W 124°49'0 0.0
2018-Apr-15 12:30N 49°14' W 124°49'0 0.0
2018-Apr-15 12:01N 49°14' W 124°49'0 0.0
2018-Apr-15 11:30N 49°14' W 124°49'0 0.0
2018-Apr-15 11:00N 49°14' W 124°49'0 0.0
2018-Apr-15 10:31N 49°14' W 124°49'0 0.0
2018-Apr-15 10:00N 49°14' W 124°49'0 0.0
2018-Apr-15 09:30N 49°14' W 124°49'0 0.0
2018-Apr-15 09:00N 49°14' W 124°49'0 0.0
2018-Apr-15 08:30N 49°14' W 124°49'0 0.0
2018-Apr-15 08:00N 49°14' W 124°49'0 0.0
2018-Apr-15 07:28N 49°14' W 124°49'0 0.0
2018-Apr-15 07:00N 49°14' W 124°49'0 0.0
2018-Apr-15 06:30N 49°14' W 124°49'0 0.0
2018-Apr-15 06:00N 49°14' W 124°49'0 0.0
2018-Apr-15 05:30N 49°14' W 124°49'0 0.0
2018-Apr-15 05:00N 49°14' W 124°49'0 0.0
2018-Apr-15 04:30N 49°14' W 124°49'0 0.0
2018-Apr-15 04:00N 49°14' W 124°49'0 0.0
2018-Apr-15 03:30N 49°14' W 124°49'0 0.0
2018-Apr-15 03:00N 49°14' W 124°49'0 0.0
2018-Apr-15 02:30N 49°14' W 124°49'0 0.0
2018-Apr-15 02:00N 49°14' W 124°49'0 0.0
2018-Apr-15 01:29N 49°14' W 124°49'0 0.0
2018-Apr-15 01:00N 49°14' W 124°49'0 0.0
2018-Apr-15 00:30N 49°14' W 124°49'0 0.0
2018-Apr-15 00:00N 49°14' W 124°49'0 0.0
2018-Apr-14 23:30N 49°14' W 124°49'0 0.0
2018-Apr-14 23:00N 49°14' W 124°49'0 0.0
2018-Apr-14 22:30N 49°14' W 124°49'0 0.0
2018-Apr-14 22:00N 49°14' W 124°49'0 0.0
2018-Apr-14 21:30N 49°14' W 124°49'0 0.0
2018-Apr-14 21:00N 49°14' W 124°49'0 0.0
2018-Apr-14 20:30N 49°14' W 124°49'0 0.0
2018-Apr-14 20:00N 49°14' W 124°49'0 0.0
2018-Apr-14 19:30N 49°14' W 124°49'0 0.0
2018-Apr-14 19:00N 49°14' W 124°49'0 0.0
2018-Apr-14 18:30N 49°14' W 124°49'0 0.0
2018-Apr-14 18:00N 49°14' W 124°49'0 0.0
2018-Apr-14 17:30N 49°14' W 124°49'0 0.0
2018-Apr-14 17:00N 49°14' W 124°49'0 0.0
2018-Apr-14 16:31N 49°14' W 124°49'0 0.0
2018-Apr-14 16:00N 49°14' W 124°49'0 0.0
2018-Apr-14 15:30N 49°14' W 124°49'0 0.0
2018-Apr-14 15:00N 49°14' W 124°49'0 0.0
2018-Apr-14 14:30N 49°14' W 124°49'0 0.0
2018-Apr-14 13:58N 49°14' W 124°49'0 0.0
2018-Apr-14 13:30N 49°14' W 124°49'0 0.0
2018-Apr-14 13:00N 49°14' W 124°49'0 0.0
2018-Apr-14 12:30N 49°14' W 124°49'0 0.0
2018-Apr-14 12:00N 49°14' W 124°49'0 0.0
2018-Apr-14 11:30N 49°14' W 124°49'0 0.0
2018-Apr-14 10:58N 49°14' W 124°49'0 0.0
2018-Apr-14 10:30N 49°14' W 124°49'0 0.0
2018-Apr-14 10:00N 49°14' W 124°49'0 0.0
2018-Apr-14 09:30N 49°14' W 124°49'0 0.0
2018-Apr-14 09:01N 49°14' W 124°49'0 0.0
2018-Apr-14 08:30N 49°14' W 124°49'0 0.0
2018-Apr-14 08:00N 49°14' W 124°49'0 0.0
2018-Apr-14 07:30N 49°14' W 124°49'0 0.0
2018-Apr-14 07:00N 49°14' W 124°49'0 0.0
2018-Apr-14 06:30N 49°14' W 124°49'0 0.0
2018-Apr-14 06:00N 49°14' W 124°49'0 0.0
2018-Apr-14 05:30N 49°14' W 124°49'0 0.0
2018-Apr-14 04:58N 49°14' W 124°49'0 0.0
2018-Apr-14 04:30N 49°14' W 124°49'0 0.0
2018-Apr-14 04:00N 49°14' W 124°49'0 0.0
2018-Apr-14 03:30N 49°14' W 124°49'0 0.0
2018-Apr-14 03:00N 49°14' W 124°49'0 0.0
2018-Apr-14 02:30N 49°14' W 124°49'0 0.0
2018-Apr-14 02:00N 49°14' W 124°49'0 0.0
2018-Apr-14 01:31N 49°14' W 124°49'0 0.0
2018-Apr-14 00:59N 49°14' W 124°49'0 0.0
2018-Apr-14 00:30N 49°14' W 124°49'0 0.0
2018-Apr-14 00:00N 49°14' W 124°49'0 0.0
2018-Apr-13 23:30N 49°14' W 124°49'0 0.0
2018-Apr-13 23:00N 49°14' W 124°49'0 0.0
2018-Apr-13 22:30N 49°14' W 124°49'0 0.0
2018-Apr-13 22:01N 49°14' W 124°49'0 0.0
2018-Apr-13 21:30N 49°14' W 124°49'0 0.0
2018-Apr-13 21:00N 49°14' W 124°49'0 0.0
2018-Apr-13 20:30N 49°14' W 124°49'0 0.0
2018-Apr-13 20:00N 49°14' W 124°49'0 0.0
2018-Apr-13 19:30N 49°14' W 124°49'0 0.0
2018-Apr-13 19:00N 49°14' W 124°49'0 0.0
2018-Apr-13 18:00N 49°14' W 124°49'0 0.0
2018-Apr-13 17:30N 49°14' W 124°49'0 0.0
2018-Apr-13 17:00N 49°14' W 124°49'0 0.0
2018-Apr-13 16:30N 49°14' W 124°49'0 0.0
2018-Apr-13 16:00N 49°14' W 124°49'0 0.0
2018-Apr-13 15:00N 49°14' W 124°49'0 0.0
2018-Apr-13 14:00N 49°14' W 124°49'0 0.0
2018-Apr-13 13:28N 49°14' W 124°49'0 0.0
2018-Apr-13 12:30N 49°14' W 124°49'0 0.0
2018-Apr-13 12:00N 49°14' W 124°49'0 0.0
2018-Apr-13 11:30N 49°14' W 124°49'0 0.0
2018-Apr-13 11:00N 49°14' W 124°49'0 0.0
2018-Apr-13 10:30N 49°14' W 124°49'0 0.0
2018-Apr-13 09:59N 49°14' W 124°49'0 0.0
2018-Apr-13 09:30N 49°14' W 124°49'0 0.0
2018-Apr-13 09:00N 49°14' W 124°49'0 0.0
2018-Apr-13 08:30N 49°14' W 124°49'0 0.0
2018-Apr-13 08:00N 49°14' W 124°49'0 0.0
2018-Apr-13 07:30N 49°14' W 124°49'0 0.0
2018-Apr-13 07:00N 49°14' W 124°49'0 0.0
2018-Apr-13 06:30N 49°14' W 124°49'0 0.0
2018-Apr-13 06:01N 49°14' W 124°49'  
Track history (hours):
 
Tides and Currents Weather Stations Pressure Air Temp Water Temp Dewpoint Dewpoint Depression Visibility Wind Speed Wind Dir Waves Ship Positions

Ocean King

Last reported at 2018-Apr-23 05:31 UTC. Time now 2018-Apr-23 05:44 UTC.
Position N 48°56' W 125°32'.

Length 29 m; draft 4 m.

Type: Fishing. MMSI: 316003514.

Date/timePositionNaut miles runAvg speedWind from/ knotsBaromVisibWave heightAir tempDewpointWater temp
2018-Apr-23 05:31N 48°56' W 125°32'0 0.0
2018-Apr-23 05:00N 48°56' W 125°32'0 0.0
2018-Apr-23 04:30N 48°56' W 125°32'0 0.0
2018-Apr-23 04:00N 48°56' W 125°32'0 0.0
2018-Apr-23 03:31N 48°56' W 125°32'0 0.0
2018-Apr-23 03:00N 48°56' W 125°32'0 0.0
2018-Apr-23 02:30N 48°56' W 125°32'0 0.0
2018-Apr-23 02:00N 48°56' W 125°32'0 0.0
2018-Apr-23 01:30N 48°56' W 125°32'3 5.2
2018-Apr-23 01:00N 48°55' W 125°29'4 8.9
2018-Apr-23 00:30N 48°56' W 125°23'5 9.2
2018-Apr-23 00:00N 48°57' W 125°16'5 8.9
2018-Apr-22 23:28N 48°56' W 125°09'14 5.1
2018-Apr-22 20:49N 49°04' W 124°51'3 9.3
2018-Apr-22 20:26N 49°07' W 124°49'4 9.4
2018-Apr-22 20:00N 49°11' W 124°49'3 6.9
2018-Apr-22 19:30N 49°14' W 124°49'0 0.0
2018-Apr-22 19:00N 49°14' W 124°49'0 0.0
2018-Apr-22 18:30N 49°14' W 124°49'0 0.4
2018-Apr-22 18:00N 49°14' W 124°49'0 0.0
2018-Apr-22 17:28N 49°14' W 124°49'0 0.0
2018-Apr-22 17:00N 49°14' W 124°49'0 0.0
2018-Apr-22 16:31N 49°14' W 124°49'0 0.0
2018-Apr-22 16:00N 49°14' W 124°49'0 0.0
2018-Apr-22 15:30N 49°14' W 124°49'0 0.0
2018-Apr-22 15:00N 49°14' W 124°49'0 0.0
2018-Apr-22 14:30N 49°14' W 124°49'0 0.0
2018-Apr-22 14:01N 49°14' W 124°49'0 0.0
2018-Apr-22 13:30N 49°14' W 124°49'0 0.0
2018-Apr-22 13:00N 49°14' W 124°49'0 0.0
2018-Apr-22 12:30N 49°14' W 124°49'0 0.0
2018-Apr-22 12:00N 49°14' W 124°49'0 0.0
2018-Apr-22 11:30N 49°14' W 124°49'0 0.0
2018-Apr-22 11:00N 49°14' W 124°49'0 0.0
2018-Apr-22 10:30N 49°14' W 124°49'0 0.0
2018-Apr-22 10:00N 49°14' W 124°49'0 0.0
2018-Apr-22 09:29N 49°14' W 124°49'0 0.0
2018-Apr-22 09:00N 49°14' W 124°49'0 0.0
2018-Apr-22 08:30N 49°14' W 124°49'0 0.0
2018-Apr-22 08:00N 49°14' W 124°49'0 0.0
2018-Apr-22 07:30N 49°14' W 124°49'0 0.0
2018-Apr-22 07:01N 49°14' W 124°49'0 0.0
2018-Apr-22 06:29N 49°14' W 124°49'0 0.0
2018-Apr-22 06:00N 49°14' W 124°49'0 0.0
2018-Apr-22 05:30N 49°14' W 124°49'0 0.0
2018-Apr-22 05:00N 49°14' W 124°49'0 0.0
2018-Apr-22 04:30N 49°14' W 124°49'0 0.0
2018-Apr-22 04:00N 49°14' W 124°49'0 0.0
2018-Apr-22 03:30N 49°14' W 124°49'0 0.0
2018-Apr-22 03:00N 49°14' W 124°49'0 0.0
2018-Apr-22 02:26N 49°14' W 124°49'0 0.0
2018-Apr-22 01:55N 49°14' W 124°49'0 0.0
2018-Apr-22 01:28N 49°14' W 124°49'0 0.0
2018-Apr-22 00:54N 49°14' W 124°49'0 0.0
2018-Apr-22 00:31N 49°14' W 124°49'0 0.0
2018-Apr-21 23:59N 49°14' W 124°49'0 0.0
2018-Apr-21 23:30N 49°14' W 124°49'0 0.0
2018-Apr-21 23:01N 49°14' W 124°49'0 0.0
2018-Apr-21 22:30N 49°14' W 124°49'0 0.0
2018-Apr-21 22:01N 49°14' W 124°49'0 0.0
2018-Apr-21 21:30N 49°14' W 124°49'0 0.0
2018-Apr-21 20:59N 49°14' W 124°49'0 0.0
2018-Apr-21 20:28N 49°14' W 124°49'0 0.0
2018-Apr-21 20:00N 49°14' W 124°49'0 0.0
2018-Apr-21 19:30N 49°14' W 124°49'0 0.0
2018-Apr-21 19:00N 49°14' W 124°49'0 0.0
2018-Apr-21 18:30N 49°14' W 124°49'0 0.0
2018-Apr-21 18:00N 49°14' W 124°49'0 0.0
2018-Apr-21 17:30N 49°14' W 124°49'0 0.0
2018-Apr-21 17:00N 49°14' W 124°49'0 0.0
2018-Apr-21 16:30N 49°14' W 124°49'0 0.0
2018-Apr-21 16:00N 49°14' W 124°49'0 0.0
2018-Apr-21 15:28N 49°14' W 124°49'0 0.0
2018-Apr-21 15:00N 49°14' W 124°49'0 0.0
2018-Apr-21 14:30N 49°14' W 124°49'0 0.0
2018-Apr-21 14:00N 49°14' W 124°49'0 0.0
2018-Apr-21 13:30N 49°14' W 124°49'0 0.0
2018-Apr-21 13:00N 49°14' W 124°49'0 0.0
2018-Apr-21 12:30N 49°14' W 124°49'0 0.0
2018-Apr-21 12:00N 49°14' W 124°49'0 0.0
2018-Apr-21 11:30N 49°14' W 124°49'0 0.0
2018-Apr-21 11:01N 49°14' W 124°49'0 0.0
2018-Apr-21 10:30N 49°14' W 124°49'0 0.0
2018-Apr-21 09:57N 49°14' W 124°49'0 0.0
2018-Apr-21 09:30N 49°14' W 124°49'0 0.0
2018-Apr-21 09:00N 49°14' W 124°49'0 0.0
2018-Apr-21 08:30N 49°14' W 124°49'0 0.0
2018-Apr-21 08:00N 49°14' W 124°49'0 0.0
2018-Apr-21 07:30N 49°14' W 124°49'0 0.0
2018-Apr-21 07:00N 49°14' W 124°49'0 0.0
2018-Apr-21 06:30N 49°14' W 124°49'0 0.0
2018-Apr-21 05:57N 49°14' W 124°49'0 0.0
2018-Apr-21 05:30N 49°14' W 124°49'0 0.0
2018-Apr-21 05:00N 49°14' W 124°49'0 0.0
2018-Apr-21 04:31N 49°14' W 124°49'0 0.0
2018-Apr-21 04:00N 49°14' W 124°49'0 0.0
2018-Apr-21 03:30N 49°14' W 124°49'0 0.0
2018-Apr-21 03:01N 49°14' W 124°49'0 0.0
2018-Apr-21 02:30N 49°14' W 124°49'0 0.0
2018-Apr-21 02:00N 49°14' W 124°49'0 0.0
2018-Apr-21 01:31N 49°14' W 124°49'0 0.0
2018-Apr-21 00:48N 49°14' W 124°49'0 0.0
2018-Apr-21 00:26N 49°14' W 124°49'0 0.0
2018-Apr-21 00:00N 49°14' W 124°49'0 0.0
2018-Apr-20 23:30N 49°14' W 124°49'0 0.0
2018-Apr-20 23:00N 49°14' W 124°49'0 0.0
2018-Apr-20 22:30N 49°14' W 124°49'0 0.0
2018-Apr-20 22:00N 49°14' W 124°49'0 0.0
2018-Apr-20 21:30N 49°14' W 124°49'0 0.0
2018-Apr-20 21:00N 49°14' W 124°49'0 0.0
2018-Apr-20 19:57N 49°14' W 124°49'0 0.0
2018-Apr-20 19:28N 49°14' W 124°49'0 0.0
2018-Apr-20 19:00N 49°14' W 124°49'0 0.0
2018-Apr-20 18:30N 49°14' W 124°49'0 0.0
2018-Apr-20 18:00N 49°14' W 124°49'0 0.0
2018-Apr-20 17:29N 49°14' W 124°49'0 0.0
2018-Apr-20 17:00N 49°14' W 124°49'0 0.0
2018-Apr-20 16:30N 49°14' W 124°49'0 0.0
2018-Apr-20 16:00N 49°14' W 124°49'0 0.0
2018-Apr-20 15:30N 49°14' W 124°49'0 0.0
2018-Apr-20 15:00N 49°14' W 124°49'0 0.0
2018-Apr-20 14:30N 49°14' W 124°49'0 0.0
2018-Apr-20 13:59N 49°14' W 124°49'0 0.0
2018-Apr-20 13:30N 49°14' W 124°49'0 0.0
2018-Apr-20 13:00N 49°14' W 124°49'0 0.0
2018-Apr-20 12:30N 49°14' W 124°49'0 0.0
2018-Apr-20 11:57N 49°14' W 124°49'0 0.0
2018-Apr-20 11:25N 49°14' W 124°49'0 0.0
2018-Apr-20 11:00N 49°14' W 124°49'0 0.0
2018-Apr-20 10:31N 49°14' W 124°49'0 0.0
2018-Apr-20 10:00N 49°14' W 124°49'0 0.0
2018-Apr-20 09:30N 49°14' W 124°49'0 0.0
2018-Apr-20 09:00N 49°14' W 124°49'0 0.0
2018-Apr-20 08:31N 49°14' W 124°49'0 0.0
2018-Apr-20 08:00N 49°14' W 124°49'0 0.0
2018-Apr-20 07:30N 49°14' W 124°49'0 0.0
2018-Apr-20 06:57N 49°14' W 124°49'0 0.0
2018-Apr-20 06:30N 49°14' W 124°49'0 0.0
2018-Apr-20 06:00N 49°14' W 124°49'0 0.0
2018-Apr-20 05:31N 49°14' W 124°49'0 0.0
2018-Apr-20 04:58N 49°14' W 124°49'0 0.0
2018-Apr-20 04:30N 49°14' W 124°49'0 0.0
2018-Apr-20 04:00N 49°14' W 124°49'0 0.0
2018-Apr-20 03:27N 49°14' W 124°49'0 0.0
2018-Apr-20 03:00N 49°14' W 124°49'0 0.0
2018-Apr-20 02:31N 49°14' W 124°49'0 0.0
2018-Apr-20 02:01N 49°14' W 124°49'0 0.0
2018-Apr-20 01:25N 49°14' W 124°49'0 0.0
2018-Apr-20 01:00N 49°14' W 124°49'0 0.0
2018-Apr-20 00:23N 49°14' W 124°49'0 0.0
2018-Apr-20 00:00N 49°14' W 124°49'0 0.0
2018-Apr-19 23:30N 49°14' W 124°49'0 0.0
2018-Apr-19 23:00N 49°14' W 124°49'0 0.0
2018-Apr-19 22:30N 49°14' W 124°49'0 0.0
2018-Apr-19 22:00N 49°14' W 124°49'0 0.0
2018-Apr-19 21:27N 49°14' W 124°49'0 0.0
2018-Apr-19 21:00N 49°14' W 124°49'0 0.0
2018-Apr-19 20:30N 49°14' W 124°49'0 0.0
2018-Apr-19 19:56N 49°14' W 124°49'0 0.0
2018-Apr-19 19:30N 49°14' W 124°49'0 0.0
2018-Apr-19 19:01N 49°14' W 124°49'0 0.0
2018-Apr-19 18:29N 49°14' W 124°49'0 0.0
2018-Apr-19 18:00N 49°14' W 124°49'0 0.0
2018-Apr-19 17:30N 49°14' W 124°49'0 0.0
2018-Apr-19 17:00N 49°14' W 124°49'0 0.0
2018-Apr-19 16:28N 49°14' W 124°49'0 0.0
2018-Apr-19 16:01N 49°14' W 124°49'0 0.0
2018-Apr-19 15:30N 49°14' W 124°49'0 0.0
2018-Apr-19 15:01N 49°14' W 124°49'0 0.0
2018-Apr-19 14:30N 49°14' W 124°49'0 0.0
2018-Apr-19 14:00N 49°14' W 124°49'0 0.0
2018-Apr-19 13:28N 49°14' W 124°49'0 0.0
2018-Apr-19 13:00N 49°14' W 124°49'0 0.0
2018-Apr-19 12:26N 49°14' W 124°49'0 0.0
2018-Apr-19 11:59N 49°14' W 124°49'0 0.0
2018-Apr-19 11:30N 49°14' W 124°49'0 0.0
2018-Apr-19 10:58N 49°14' W 124°49'0 0.0
2018-Apr-19 10:27N 49°14' W 124°49'0 0.0
2018-Apr-19 10:00N 49°14' W 124°49'0 0.0
2018-Apr-19 09:30N 49°14' W 124°49'0 0.0
2018-Apr-19 09:00N 49°14' W 124°49'0 0.0
2018-Apr-19 08:30N 49°14' W 124°49'0 0.0
2018-Apr-19 08:00N 49°14' W 124°49'0 0.0
2018-Apr-19 07:30N 49°14' W 124°49'0 0.0
2018-Apr-19 07:00N 49°14' W 124°49'0 0.0
2018-Apr-19 06:30N 49°14' W 124°49'0 0.0
2018-Apr-19 06:00N 49°14' W 124°49'0 0.0
2018-Apr-19 05:30N 49°14' W 124°49'0 0.0
2018-Apr-19 05:00N 49°14' W 124°49'0 0.0
2018-Apr-19 04:30N 49°14' W 124°49'0 0.0
2018-Apr-19 04:01N 49°14' W 124°49'0 0.0
2018-Apr-19 03:29N 49°14' W 124°49'0 0.0
2018-Apr-19 03:00N 49°14' W 124°49'0 0.0
2018-Apr-19 02:30N 49°14' W 124°49'0 0.0
2018-Apr-19 01:59N 49°14' W 124°49'0 0.0
2018-Apr-19 01:30N 49°14' W 124°49'0 0.0
2018-Apr-19 00:59N 49°14' W 124°49'0 0.0
2018-Apr-19 00:30N 49°14' W 124°49'0 0.0
2018-Apr-18 23:58N 49°14' W 124°49'0 0.0
2018-Apr-18 23:30N 49°14' W 124°49'0 0.0
2018-Apr-18 23:00N 49°14' W 124°49'0 0.0
2018-Apr-18 22:26N 49°14' W 124°49'0 0.0
2018-Apr-18 22:00N 49°14' W 124°49'0 0.0
2018-Apr-18 21:31N 49°14' W 124°49'0 0.0
2018-Apr-18 21:00N 49°14' W 124°49'0 0.0
2018-Apr-18 20:30N 49°14' W 124°49'1 1.3
2018-Apr-18 20:00N 49°14' W 124°49'0 0.2
2018-Apr-18 19:28N 49°13' W 124°49'0 0.0
2018-Apr-18 19:00N 49°13' W 124°49'0 0.0
2018-Apr-18 18:30N 49°13' W 124°49'0 0.0
2018-Apr-18 17:56N 49°13' W 124°49'0 0.0
2018-Apr-18 17:28N 49°13' W 124°49'0 0.0
2018-Apr-18 17:00N 49°13' W 124°49'0 0.0
2018-Apr-18 16:30N 49°13' W 124°49'1 1.4
2018-Apr-18 16:00N 49°14' W 124°49'0 0.0
2018-Apr-18 15:30N 49°14' W 124°49'0 0.0
2018-Apr-18 15:00N 49°14' W 124°49'0 0.0
2018-Apr-18 14:30N 49°14' W 124°49'0 0.0
2018-Apr-18 14:00N 49°14' W 124°49'0 0.0
2018-Apr-18 13:28N 49°14' W 124°49'0 0.0
2018-Apr-18 13:01N 49°14' W 124°49'0 0.0
2018-Apr-18 12:30N 49°14' W 124°49'0 0.0
2018-Apr-18 12:00N 49°14' W 124°49'0 0.0
2018-Apr-18 11:30N 49°14' W 124°49'0 0.0
2018-Apr-18 11:01N 49°14' W 124°49'0 0.0
2018-Apr-18 10:28N 49°14' W 124°49'0 0.0
2018-Apr-18 09:59N 49°14' W 124°49'0 0.0
2018-Apr-18 09:30N 49°14' W 124°49'0 0.0
2018-Apr-18 09:00N 49°14' W 124°49'0 0.0
2018-Apr-18 08:28N 49°14' W 124°49'0 0.0
2018-Apr-18 08:00N 49°14' W 124°49'0 0.0
2018-Apr-18 07:30N 49°14' W 124°49'0 0.0
2018-Apr-18 07:00N 49°14' W 124°49'0 0.0
2018-Apr-18 06:30N 49°14' W 124°49'0 0.0
2018-Apr-18 06:00N 49°14' W 124°49'0 0.0
2018-Apr-18 05:31N 49°14' W 124°49'0 0.0
2018-Apr-18 05:00N 49°14' W 124°49'0 0.0
2018-Apr-18 04:30N 49°14' W 124°49'0 0.0
2018-Apr-18 04:00N 49°14' W 124°49'0 0.0
2018-Apr-18 03:30N 49°14' W 124°49'0 0.0
2018-Apr-18 03:00N 49°14' W 124°49'0 0.0
2018-Apr-18 02:30N 49°14' W 124°49'0 0.0
2018-Apr-18 02:00N 49°14' W 124°49'0 0.0
2018-Apr-18 01:30N 49°14' W 124°49'0 0.0
2018-Apr-18 01:01N 49°14' W 124°49'0 0.0
2018-Apr-18 00:30N 49°14' W 124°49'0 0.0
2018-Apr-18 00:00N 49°14' W 124°49'0 0.0
2018-Apr-17 23:30N 49°14' W 124°49'1 1.3
2018-Apr-17 23:00N 49°14' W 124°49'0 0.0
2018-Apr-17 22:30N 49°14' W 124°49'0 0.0
2018-Apr-17 22:00N 49°14' W 124°49'0 0.0
2018-Apr-17 21:30N 49°14' W 124°49'0 0.0
2018-Apr-17 21:00N 49°14' W 124°49'0 0.0
2018-Apr-17 20:30N 49°14' W 124°49'0 0.0
2018-Apr-17 20:00N 49°14' W 124°49'0 0.0
2018-Apr-17 19:30N 49°14' W 124°49'0 0.0
2018-Apr-17 19:00N 49°14' W 124°49'0 0.0
2018-Apr-17 18:30N 49°14' W 124°49'0 0.0
2018-Apr-17 18:00N 49°14' W 124°49'0 0.0
2018-Apr-17 17:30N 49°14' W 124°49'0 0.0
2018-Apr-17 17:00N 49°14' W 124°49'0 0.0
2018-Apr-17 16:30N 49°14' W 124°49'0 0.0
2018-Apr-17 16:00N 49°14' W 124°49'0 0.2
2018-Apr-17 15:30N 49°14' W 124°49'1 1.1
2018-Apr-17 15:00N 49°14' W 124°49'0 0.0
2018-Apr-17 14:30N 49°14' W 124°49'0 0.0
2018-Apr-17 14:00N 49°14' W 124°49'0 0.0
2018-Apr-17 13:30N 49°14' W 124°49'0 0.0
2018-Apr-17 13:00N 49°14' W 124°49'0 0.0
2018-Apr-17 12:30N 49°14' W 124°49'0 0.0
2018-Apr-17 12:00N 49°14' W 124°49'0 0.0
2018-Apr-17 11:30N 49°14' W 124°49'0 0.0
2018-Apr-17 11:00N 49°14' W 124°49'0 0.0
2018-Apr-17 10:30N 49°14' W 124°49'0 0.0
2018-Apr-17 10:00N 49°14' W 124°49'0 0.0
2018-Apr-17 09:30N 49°14' W 124°49'0 0.0
2018-Apr-17 09:00N 49°14' W 124°49'0 0.0
2018-Apr-17 08:30N 49°14' W 124°49'0 0.0
2018-Apr-17 08:00N 49°14' W 124°49'0 0.0
2018-Apr-17 07:30N 49°14' W 124°49'0 0.0
2018-Apr-17 07:00N 49°14' W 124°49'0 0.0
2018-Apr-17 06:30N 49°14' W 124°49'0 0.0
2018-Apr-17 06:00N 49°14' W 124°49'0 0.0
2018-Apr-17 05:30N 49°14' W 124°49'0 0.0
2018-Apr-17 05:00N 49°14' W 124°49'0 0.0
2018-Apr-17 04:30N 49°14' W 124°49'0 0.0
2018-Apr-17 04:00N 49°14' W 124°49'0 0.0
2018-Apr-17 03:30N 49°14' W 124°49'0 0.0
2018-Apr-17 03:00N 49°14' W 124°49'0 0.0
2018-Apr-17 02:30N 49°14' W 124°49'0 0.0
2018-Apr-17 01:57N 49°14' W 124°49'0 0.0
2018-Apr-17 01:30N 49°14' W 124°49'0 0.0
2018-Apr-17 01:00N 49°14' W 124°49'0 0.0
2018-Apr-17 00:30N 49°14' W 124°49'0 0.0
2018-Apr-17 00:00N 49°14' W 124°49'0 0.0
2018-Apr-16 23:30N 49°14' W 124°49'0 0.0
2018-Apr-16 23:00N 49°14' W 124°49'0 0.0
2018-Apr-16 22:30N 49°14' W 124°49'0 0.0
2018-Apr-16 22:00N 49°14' W 124°49'0 0.0
2018-Apr-16 21:30N 49°14' W 124°49'0 0.0
2018-Apr-16 21:00N 49°14' W 124°49'0 0.0
2018-Apr-16 20:30N 49°14' W 124°49'0 0.0
2018-Apr-16 20:00N 49°14' W 124°49'0 0.0
2018-Apr-16 19:30N 49°14' W 124°49'0 0.0
2018-Apr-16 19:00N 49°14' W 124°49'0 0.0
2018-Apr-16 18:30N 49°14' W 124°49'0 0.0
2018-Apr-16 18:00N 49°14' W 124°49'0 0.0
2018-Apr-16 17:30N 49°14' W 124°49'0 0.0
2018-Apr-16 17:00N 49°14' W 124°49'0 0.0
2018-Apr-16 16:30N 49°14' W 124°49'0 0.0
2018-Apr-16 16:00N 49°14' W 124°49'0 0.0
2018-Apr-16 15:30N 49°14' W 124°49'0 0.0
2018-Apr-16 15:00N 49°14' W 124°49'0 0.0
2018-Apr-16 14:30N 49°14' W 124°49'0 0.0
2018-Apr-16 14:00N 49°14' W 124°49'0 0.0
2018-Apr-16 13:30N 49°14' W 124°49'0 0.0
2018-Apr-16 13:00N 49°14' W 124°49'0 0.0
2018-Apr-16 12:30N 49°14' W 124°49'0 0.0
2018-Apr-16 12:00N 49°14' W 124°49'0 0.0
2018-Apr-16 11:30N 49°14' W 124°49'0 0.0
2018-Apr-16 11:00N 49°14' W 124°49'0 0.0
2018-Apr-16 10:30N 49°14' W 124°49'0 0.0
2018-Apr-16 10:00N 49°14' W 124°49'0 0.0
2018-Apr-16 09:29N 49°14' W 124°49'0 0.0
2018-Apr-16 08:59N 49°14' W 124°49'0 0.0
2018-Apr-16 08:30N 49°14' W 124°49'0 0.0
2018-Apr-16 08:00N 49°14' W 124°49'0 0.0
2018-Apr-16 07:29N 49°14' W 124°49'0 0.0
2018-Apr-16 07:00N 49°14' W 124°49'0 0.0
2018-Apr-16 06:30N 49°14' W 124°49'0 0.0
2018-Apr-16 06:00N 49°14' W 124°49'0 0.0
2018-Apr-16 05:28N 49°14' W 124°49'0 0.0
2018-Apr-16 05:00N 49°14' W 124°49'0 0.0
2018-Apr-16 04:30N 49°14' W 124°49'0 0.0
2018-Apr-16 04:00N 49°14' W 124°49'0 0.0
2018-Apr-16 03:30N 49°14' W 124°49'0 0.0
2018-Apr-16 03:00N 49°14' W 124°49'0 0.0
2018-Apr-16 02:30N 49°14' W 124°49'0 0.0
2018-Apr-16 02:00N 49°14' W 124°49'0 0.0
2018-Apr-16 01:30N 49°14' W 124°49'0 0.0
2018-Apr-16 01:00N 49°14' W 124°49'0 0.0
2018-Apr-16 00:29N 49°14' W 124°49'0 0.0
2018-Apr-16 00:00N 49°14' W 124°49'0 0.0
2018-Apr-15 23:30N 49°14' W 124°49'0 0.0
2018-Apr-15 23:00N 49°14' W 124°49'0 0.0
2018-Apr-15 22:30N 49°14' W 124°49'0 0.0
2018-Apr-15 22:00N 49°14' W 124°49'0 0.0
2018-Apr-15 21:30N 49°14' W 124°49'0 0.0
2018-Apr-15 21:00N 49°14' W 124°49'0 0.0
2018-Apr-15 20:30N 49°14' W 124°49'0 0.0
2018-Apr-15 20:00N 49°14' W 124°49'0 0.0
2018-Apr-15 19:30N 49°14' W 124°49'0 0.0
2018-Apr-15 19:00N 49°14' W 124°49'0 0.0
2018-Apr-15 18:30N 49°14' W 124°49'0 0.0
2018-Apr-15 18:00N 49°14' W 124°49'0 0.0
2018-Apr-15 17:30N 49°14' W 124°49'0 0.0
2018-Apr-15 17:00N 49°14' W 124°49'0 0.0
2018-Apr-15 16:30N 49°14' W 124°49'0 0.0
2018-Apr-15 16:00N 49°14' W 124°49'0 0.0
2018-Apr-15 15:30N 49°14' W 124°49'0 0.0
2018-Apr-15 15:00N 49°14' W 124°49'0 0.0
2018-Apr-15 14:31N 49°14' W 124°49'0 0.0
2018-Apr-15 14:00N 49°14' W 124°49'0 0.0
2018-Apr-15 13:30N 49°14' W 124°49'0 0.0
2018-Apr-15 13:00N 49°14' W 124°49'0 0.0
2018-Apr-15 12:30N 49°14' W 124°49'0 0.0
2018-Apr-15 12:01N 49°14' W 124°49'0 0.0
2018-Apr-15 11:30N 49°14' W 124°49'0 0.0
2018-Apr-15 11:00N 49°14' W 124°49'0 0.0
2018-Apr-15 10:31N 49°14' W 124°49'0 0.0
2018-Apr-15 10:00N 49°14' W 124°49'0 0.0
2018-Apr-15 09:30N 49°14' W 124°49'0 0.0
2018-Apr-15 09:00N 49°14' W 124°49'0 0.0
2018-Apr-15 08:30N 49°14' W 124°49'0 0.0
2018-Apr-15 08:00N 49°14' W 124°49'0 0.0
2018-Apr-15 07:28N 49°14' W 124°49'0 0.0
2018-Apr-15 07:00N 49°14' W 124°49'0 0.0
2018-Apr-15 06:30N 49°14' W 124°49'0 0.0
2018-Apr-15 06:00N 49°14' W 124°49'0 0.0
2018-Apr-15 05:30N 49°14' W 124°49'0 0.0
2018-Apr-15 05:00N 49°14' W 124°49'0 0.0
2018-Apr-15 04:30N 49°14' W 124°49'0 0.0
2018-Apr-15 04:00N 49°14' W 124°49'0 0.0
2018-Apr-15 03:30N 49°14' W 124°49'0 0.0
2018-Apr-15 03:00N 49°14' W 124°49'0 0.0
2018-Apr-15 02:30N 49°14' W 124°49'0 0.0
2018-Apr-15 02:00N 49°14' W 124°49'0 0.0
2018-Apr-15 01:29N 49°14' W 124°49'0 0.0
2018-Apr-15 01:00N 49°14' W 124°49'0 0.0
2018-Apr-15 00:30N 49°14' W 124°49'0 0.0
2018-Apr-15 00:00N 49°14' W 124°49'0 0.0
2018-Apr-14 23:30N 49°14' W 124°49'0 0.0
2018-Apr-14 23:00N 49°14' W 124°49'0 0.0
2018-Apr-14 22:30N 49°14' W 124°49'0 0.0
2018-Apr-14 22:00N 49°14' W 124°49'0 0.0
2018-Apr-14 21:30N 49°14' W 124°49'0 0.0
2018-Apr-14 21:00N 49°14' W 124°49'0 0.0
2018-Apr-14 20:30N 49°14' W 124°49'0 0.0
2018-Apr-14 20:00N 49°14' W 124°49'0 0.0
2018-Apr-14 19:30N 49°14' W 124°49'0 0.0
2018-Apr-14 19:00N 49°14' W 124°49'0 0.0
2018-Apr-14 18:30N 49°14' W 124°49'0 0.0
2018-Apr-14 18:00N 49°14' W 124°49'0 0.0
2018-Apr-14 17:30N 49°14' W 124°49'0 0.0
2018-Apr-14 17:00N 49°14' W 124°49'0 0.0
2018-Apr-14 16:31N 49°14' W 124°49'0 0.0
2018-Apr-14 16:00N 49°14' W 124°49'0 0.0
2018-Apr-14 15:30N 49°14' W 124°49'0 0.0
2018-Apr-14 15:00N 49°14' W 124°49'0 0.0
2018-Apr-14 14:30N 49°14' W 124°49'0 0.0
2018-Apr-14 13:58N 49°14' W 124°49'0 0.0
2018-Apr-14 13:30N 49°14' W 124°49'0 0.0
2018-Apr-14 13:00N 49°14' W 124°49'0 0.0
2018-Apr-14 12:30N 49°14' W 124°49'0 0.0
2018-Apr-14 12:00N 49°14' W 124°49'0 0.0
2018-Apr-14 11:30N 49°14' W 124°49'0 0.0
2018-Apr-14 10:58N 49°14' W 124°49'0 0.0
2018-Apr-14 10:30N 49°14' W 124°49'0 0.0
2018-Apr-14 10:00N 49°14' W 124°49'0 0.0
2018-Apr-14 09:30N 49°14' W 124°49'0 0.0
2018-Apr-14 09:01N 49°14' W 124°49'0 0.0
2018-Apr-14 08:30N 49°14' W 124°49'0 0.0
2018-Apr-14 08:00N 49°14' W 124°49'0 0.0
2018-Apr-14 07:30N 49°14' W 124°49'0 0.0
2018-Apr-14 07:00N 49°14' W 124°49'0 0.0
2018-Apr-14 06:30N 49°14' W 124°49'0 0.0
2018-Apr-14 06:00N 49°14' W 124°49'0 0.0
2018-Apr-14 05:30N 49°14' W 124°49'0 0.0
2018-Apr-14 04:58N 49°14' W 124°49'0 0.0
2018-Apr-14 04:30N 49°14' W 124°49'0 0.0
2018-Apr-14 04:00N 49°14' W 124°49'0 0.0
2018-Apr-14 03:30N 49°14' W 124°49'0 0.0
2018-Apr-14 03:00N 49°14' W 124°49'0 0.0
2018-Apr-14 02:30N 49°14' W 124°49'0 0.0
2018-Apr-14 02:00N 49°14' W 124°49'0 0.0
2018-Apr-14 01:31N 49°14' W 124°49'0 0.0
2018-Apr-14 00:59N 49°14' W 124°49'0 0.0
2018-Apr-14 00:30N 49°14' W 124°49'0 0.0
2018-Apr-14 00:00N 49°14' W 124°49'0 0.0
2018-Apr-13 23:30N 49°14' W 124°49'0 0.0
2018-Apr-13 23:00N 49°14' W 124°49'0 0.0
2018-Apr-13 22:30N 49°14' W 124°49'0 0.0
2018-Apr-13 22:01N 49°14' W 124°49'0 0.0
2018-Apr-13 21:30N 49°14' W 124°49'0 0.0
2018-Apr-13 21:00N 49°14' W 124°49'0 0.0
2018-Apr-13 20:30N 49°14' W 124°49'0 0.0
2018-Apr-13 20:00N 49°14' W 124°49'0 0.0
2018-Apr-13 19:30N 49°14' W 124°49'0 0.0
2018-Apr-13 19:00N 49°14' W 124°49'0 0.0
2018-Apr-13 18:00N 49°14' W 124°49'0 0.0
2018-Apr-13 17:30N 49°14' W 124°49'0 0.0
2018-Apr-13 17:00N 49°14' W 124°49'0 0.0
2018-Apr-13 16:30N 49°14' W 124°49'0 0.0
2018-Apr-13 16:00N 49°14' W 124°49'0 0.0
2018-Apr-13 15:00N 49°14' W 124°49'0 0.0
2018-Apr-13 14:00N 49°14' W 124°49'0 0.0
2018-Apr-13 13:28N 49°14' W 124°49'0 0.0
2018-Apr-13 12:30N 49°14' W 124°49'0 0.0
2018-Apr-13 12:00N 49°14' W 124°49'0 0.0
2018-Apr-13 11:30N 49°14' W 124°49'0 0.0
2018-Apr-13 11:00N 49°14' W 124°49'0 0.0
2018-Apr-13 10:30N 49°14' W 124°49'0 0.0
2018-Apr-13 09:59N 49°14' W 124°49'0 0.0
2018-Apr-13 09:30N 49°14' W 124°49'0 0.0
2018-Apr-13 09:00N 49°14' W 124°49'0 0.0
2018-Apr-13 08:30N 49°14' W 124°49'0 0.0
2018-Apr-13 08:00N 49°14' W 124°49'0 0.0
2018-Apr-13 07:30N 49°14' W 124°49'0 0.0
2018-Apr-13 07:00N 49°14' W 124°49'0 0.0
2018-Apr-13 06:30N 49°14' W 124°49'0 0.0
2018-Apr-13 06:01N 49°14' W 124°49'  

Dump ship's entire track history